• Join FlightAware (Why Join?)
  • Login
  • US Flag 
08:53AM EDT


 

Airport Tracker/Info


-or-


 

Live Flight TrackerFlight Track Log ✈ ASQ5678 ✈ 10-Aug-2013 ✈ KLIT - KIAH

Flight Track Log - Related Links

Times and Time Zones

All times are in EDT time to prevent confusion due to time zone crossing. See the ASQ5678 flight status page for this flight to view local times or setup timezone preferences in your user account.

Time Position Orientation Groundspeed Altitude Reporting Facility
EDT Latitude Longitude Course Direction KTS MPH feet Rate Location/Type
07:24AM 34.7197 -92.2444 193° South 160 184 600  Level Memphis Center
07:25AM 34.6844 -92.2489 186° South 181 208 2,400 2,100 Climbing Memphis Center
07:26AM 34.6242 -92.2322 167° South 231 266 4,500 2,160 Climbing Memphis Center
07:27AM 34.4911 -92.3908 190° South  Level Estimated
07:28AM 34.4028 -92.3616 165° South  Level FlightAware Approximate
07:28AM 34.4844 -92.2192 176° South 279 321 8,900  Level Memphis Center
07:29AM 34.3239 -92.4180 193° South  Level Estimated
07:29AM 34.4069 -92.2300 187° South 279 321 10,800  Level Memphis Center
07:30AM 34.3150 -92.2483 189° South 307 353 11,900 1,260 Climbing Memphis Center
07:31AM 34.2144 -92.2686 189° South 341 392 13,400 1,620 Climbing Memphis Center
07:32AM 34.1139 -92.2889 189° South 354 407 15,200 1,500 Climbing Memphis Center
07:33AM 34.0239 -92.3069 189° South 368 423 16,400 1,200 Climbing Memphis Center
07:34AM 33.8619 -92.3336 188° South 400 460 18,400 1,200 Climbing Fort Worth Center
07:35AM 33.7564 -92.3547 189° South 405 466 19,500 960 Climbing Fort Worth Center
07:36AM 33.6486 -92.3733 188° South 398 458 20,400 900 Climbing Fort Worth Center
07:37AM 33.5386 -92.3922 188° South 398 458 21,300 900 Climbing Fort Worth Center
07:38AM 33.4269 -92.4158 190° South 409 471 22,200 900 Climbing Fort Worth Center
07:39AM 33.3150 -92.4347 188° South 404 465 23,200 960 Climbing Fort Worth Center
07:40AM 33.2011 -92.4536 188° South 411 473 24,200 1,020 Climbing Fort Worth Center
07:41AM 33.0808 -92.4750 188° South 406 467 25,300 960 Climbing Fort Worth Center
07:42AM 32.9711 -92.4961 189° South 406 467 26,200 900 Climbing Fort Worth Center
07:43AM 32.8550 -92.5147 188° South 411 473 27,200 900 Climbing Fort Worth Center
07:44AM 32.7431 -92.5356 189° South 416 479 28,000 360 Climbing Fort Worth Center
07:45AM 32.6269 -92.5567 189° South 416 479 28,000  Level Fort Worth Center
07:46AM 32.5178 -92.5783 190° South 449 517 28,000  Level Houston Center
07:47AM 32.3925 -92.6019 189° South 457 526 28,000  Level Houston Center
07:48AM 32.2653 -92.6267 189° South 463 533 28,000  Level Houston Center
07:49AM 32.1369 -92.6483 188° South 465 535 28,000  Level Houston Center
07:50AM 32.0097 -92.6778 191° South 468 539 28,000  Level Houston Center
07:51AM 31.8953 -92.7503 208° Southwest 469 540 28,000  Level Houston Center
07:52AM 31.7961 -92.8472 220° Southwest 466 536 28,000  Level Houston Center
07:53AM 31.6947 -92.9436 219° Southwest 470 541 28,000  Level Houston Center
07:54AM 31.5947 -93.0417 220° Southwest 468 539 28,000  Level Houston Center
07:55AM 31.4933 -93.1394 219° Southwest 472 543 28,000  Level Houston Center
07:56AM 31.3917 -93.2358 219° Southwest 472 543 28,000  Level Houston Center
07:57AM 31.2842 -93.3411 220° Southwest 474 545 28,000  Level Houston Center
07:58AM 31.1675 -93.4511 219° Southwest 475 547 28,000  Level Houston Center
07:59AM 31.0653 -93.5483 219° Southwest 475 547 28,000  Level Houston Center
08:00AM 30.9639 -93.6453 219° Southwest 475 547 28,000  Level Houston Center
08:01AM 30.8608 -93.7422 219° Southwest 478 550 28,000 -60 Level Houston Center
08:02AM 30.7592 -93.8378 219° Southwest 475 547 27,900 -1,440 Descending Houston Center
08:03AM 30.6564 -93.9356 219° Southwest 480 552 25,100 -2,880 Descending Houston Center
08:04AM 30.5556 -94.0297 219° Southwest 474 545 22,100 -3,240 Descending Houston Center
08:05AM 30.4906 -94.0906 219° Southwest 444 511 20,100 -3,300 Descending Houston Center
08:06AM 30.4019 -94.1728 219° Southwest 418 481 17,100 -3,120 Descending Houston Center
08:06AM 30.3539 -94.2183 219° Southwest 421 484 15,500 -3,000 Descending Houston Center
08:07AM 30.3097 -94.2603 219° Southwest 401 461 14,100 -3,000 Descending Houston Center
08:07AM 30.2683 -94.2978 218° Southwest 403 464 12,500 -2,100 Descending Houston Center
08:08AM 30.2256 -94.3439 223° Southwest 371 427 12,000 -600 Descending Houston Center
08:08AM 30.2033 -94.3844 238° Southwest 357 411 11,900 -540 Descending Houston Center
08:09AM 30.1764 -94.4400 241° Southwest 359 413 11,500 -1,020 Descending Houston Center
08:09AM 30.1578 -94.4861 245° Southwest 355 409 10,900 -1,020 Descending Houston Center
08:10AM 30.1306 -94.5522 245° Southwest 320 368 10,400 -960 Descending Houston Center
08:11AM 30.0931 -94.6417 244° Southwest 311 358 9,400 -1,020 Descending Houston Center
08:12AM 30.0503 -94.7436 244° Southwest 309 356 8,300 -960 Descending Houston Center
08:13AM 30.0100 -94.8261 241° Southwest 295 339 7,400 -960 Descending Houston Center
08:14AM 29.9764 -94.9147 246° West 295 339 6,400 -1,140 Descending Houston Center
08:15AM 29.9786 -95.0061 272° West 288 331 5,200 -1,380 Descending Houston Center
08:16AM 29.9758 -95.0886 268° West 279 321 3,800 -1,500 Descending Houston Center
08:17AM 29.9778 -95.1753 272° West 259 298 2,300 -1,260 Descending Houston Center
08:18AM 29.9778 -95.2428 270° West 156 180 1,200 -900 Descending Houston Center
08:19AM 29.9778 -95.2886 270° West 140 161 400 -840 Descending Houston Center